Peters, Texas
Current Conditions -  °F | °C
As of 3:55 PM on Thursday 27 Nov 2014 (Local Time) from KELA Reporting Station
Clear Clear  
Wind Chill: 66°   Ceiling: Unl
Heat Index: 66°   Visibility: 10mi
Dew Point: 30°   Wind: 5mph
Humidity: 26%   Direction: 110°ESE
Pressure: 30.41"   Gusts: NA
Location:  29.7835°N, 96.2064°W
Report Text: KELA 272155Z AUTO 11004KT 10SM CLR 19/M01 A3041 RMK AO2 T01901010
Loading
Personal Weather Stations






























Interactive Weather Map New forecast layout! Learn more

10-Day Weather Forecast

Advertisements
Track Severe Weather on mobile